Raven — WDI2989 — position and weather

sailwx.info

Track history (hours):
 
Tides and Currents Weather Stations Pressure Air Temp Water Temp Dewpoint Dewpoint Depression Visibility Wind Speed Wind Dir Waves Ship Positions

Raven

Owner: So. Cal. Ship Services, Long Beach, CA. More information available from US FCC via Universal Licensing System and Coast Guard Vessel Documentation Center.

Last reported at 2017-Sep-24 03:46 UTC. Time now 2017-Sep-26 21:50 UTC.
Position N 33°44' W 118°16'.

Length 13 m.

Type: . MMSI: 367683830.

Date/timePositionNaut miles runAvg speedWind from/ knotsBaromVisibWave heightAir tempDewpointWater temp
2017-Sep-24 03:46N 33°44' W 118°16'1 5.7
2017-Sep-24 03:30N 33°43' W 118°15'5 9.4
2017-Sep-24 03:00N 33°44' W 118°10'  
2017-Sep-18 18:21N 33°44' W 118°16'1 0.0
2017-Sep-16 15:54N 33°43' W 118°16'5 5.9
2017-Sep-16 15:06N 33°45' W 118°11'2 8.7
2017-Sep-16 14:54N 33°44' W 118°12'0 1.1
2017-Sep-16 14:31N 33°44' W 118°12'0 0.1
2017-Sep-16 14:00N 33°44' W 118°12'2 2.6
2017-Sep-16 13:22N 33°45' W 118°11'4 0.1
2017-Sep-15 01:18N 33°43' W 118°16'515.3
2017-Sep-15 01:00N 33°43' W 118°11'0 0.4
2017-Sep-15 00:23N 33°43' W 118°10'  
Track history (hours):
 
Tides and Currents Weather Stations Pressure Air Temp Water Temp Dewpoint Dewpoint Depression Visibility Wind Speed Wind Dir Waves Ship Positions

Raven

Owner: So. Cal. Ship Services, Long Beach, CA. More information available from US FCC via Universal Licensing System and Coast Guard Vessel Documentation Center.

Last reported at 2017-Sep-24 03:46 UTC. Time now 2017-Sep-26 21:50 UTC.
Position N 33°44' W 118°16'.

Length 13 m.

Type: . MMSI: 367683830.

Date/timePositionNaut miles runAvg speedWind from/ knotsBaromVisibWave heightAir tempDewpointWater temp
2017-Sep-24 03:46N 33°44' W 118°16'1 5.7
2017-Sep-24 03:30N 33°43' W 118°15'5 9.4
2017-Sep-24 03:00N 33°44' W 118°10'  
2017-Sep-18 18:21N 33°44' W 118°16'1 0.0
2017-Sep-16 15:54N 33°43' W 118°16'5 5.9
2017-Sep-16 15:06N 33°45' W 118°11'2 8.7
2017-Sep-16 14:54N 33°44' W 118°12'0 1.1
2017-Sep-16 14:31N 33°44' W 118°12'0 0.1
2017-Sep-16 14:00N 33°44' W 118°12'2 2.6
2017-Sep-16 13:22N 33°45' W 118°11'4 0.1
2017-Sep-15 01:18N 33°43' W 118°16'515.3
2017-Sep-15 01:00N 33°43' W 118°11'0 0.4
2017-Sep-15 00:23N 33°43' W 118°10'  

Dump ship's entire track history